Time;durP1;ratioP1;P1;durP2;ratioP2;P2;SDS_P1;SDS_P2;PMS_P1;PMS_P2;Temp;Humidity;BMP_temperature;BMP_pressure;BME280_temperature;BME280_humidity;BME280_pressure;Samples;Min_cycle;Max_cycle;Signal;HPM_P1;HPM_P2
2022/03/28 00:01:09;;;;;;;23.73;10.25;;;;;;;5.44;67.90;97527.25;4992483;28;20037;-67
2022/03/28 00:03:35;;;;;;;25.67;12.13;;;;;;;5.23;68.08;97530.50;5011129;28;20044;-65
2022/03/28 00:06:01;;;;;;;26.05;11.52;;;;;;;5.02;69.12;97527.50;5011996;28;20445;-65
2022/03/28 00:08:28;;;;;;;22.60;11.32;;;;;;;5.08;69.62;97525.50;5010096;28;20489;-68
2022/03/28 00:10:54;;;;;;;22.02;12.05;;;;;;;5.23;69.17;97525.09;5009713;28;20053;-67
2022/03/28 00:13:19;;;;;;;32.95;13.57;;;;;;;5.13;68.85;97517.19;5013936;28;20070;-67
2022/03/28 00:15:44;;;;;;;25.15;11.55;;;;;;;5.06;69.79;97519.53;5030317;28;20041;-65
2022/03/28 00:18:10;;;;;;;26.40;13.10;;;;;;;5.12;69.61;97516.41;5029947;28;20064;-64
2022/03/28 00:20:36;;;;;;;29.20;12.95;;;;;;;5.12;69.74;97521.03;5031799;28;20518;-66
2022/03/28 00:23:02;;;;;;;29.90;12.82;;;;;;;5.21;69.79;97510.22;5023256;28;20030;-68
2022/03/28 00:25:27;;;;;;;29.83;12.73;;;;;;;4.97;70.40;97512.16;5010293;28;20074;-67
2022/03/28 00:27:52;;;;;;;27.35;13.30;;;;;;;4.60;73.06;97502.47;5010575;28;20041;-65
2022/03/28 00:30:18;;;;;;;25.33;12.75;;;;;;;4.36;74.43;97495.44;5008365;28;20088;-68
2022/03/28 00:32:43;;;;;;;25.15;12.63;;;;;;;4.50;75.23;97494.56;5009673;28;20086;-67
2022/03/28 00:35:09;;;;;;;26.58;13.27;;;;;;;4.62;75.06;97497.53;5008597;28;20026;-67
2022/03/28 00:37:37;;;;;;;27.73;11.93;;;;;;;4.58;72.97;97504.72;5008287;28;20037;-66
2022/03/28 00:40:04;;;;;;;29.63;12.30;;;;;;;4.40;73.98;97501.84;5009738;28;20031;-65
2022/03/28 00:42:29;;;;;;;26.98;11.50;;;;;;;4.37;74.81;97501.66;5010071;28;20084;-65
2022/03/28 00:44:55;;;;;;;29.15;13.68;;;;;;;4.41;74.57;97499.94;5011686;28;20506;-64
2022/03/28 00:47:20;;;;;;;22.83;12.77;;;;;;;4.55;74.81;97494.47;5007557;28;20042;-67
2022/03/28 00:49:45;;;;;;;29.63;11.70;;;;;;;4.55;73.56;97497.16;5010248;28;20042;-67
2022/03/28 00:52:11;;;;;;;25.42;12.70;;;;;;;4.62;74.47;97499.47;5011122;28;20498;-67
2022/03/28 00:54:36;;;;;;;23.85;12.10;;;;;;;4.37;72.53;97497.03;5007422;28;20029;-66
2022/03/28 00:57:02;;;;;;;25.98;12.15;;;;;;;3.92;77.29;97490.72;5009226;28;20112;-66
2022/03/28 00:59:31;;;;;;;25.02;12.45;;;;;;;3.71;79.08;97493.03;5010814;28;20486;-67
2022/03/28 01:01:57;;;;;;;27.35;11.95;;;;;;;3.68;78.46;97491.75;5010316;28;20406;-68
2022/03/28 01:04:22;;;;;;;30.25;13.63;;;;;;;3.65;78.92;97495.06;5011030;28;20037;-67
2022/03/28 01:06:47;;;;;;;26.65;14.13;;;;;;;3.47;80.19;97493.25;5009389;28;20118;-65
2022/03/28 01:09:14;;;;;;;22.83;11.07;;;;;;;3.45;79.55;97490.84;5011098;28;20041;-66
2022/03/28 01:11:42;;;;;;;27.40;12.15;;;;;;;3.56;79.02;97500.38;5009561;28;20386;-67
2022/03/28 01:14:07;;;;;;;29.45;12.32;;;;;;;3.62;79.22;97496.47;5010831;28;20037;-67
2022/03/28 01:18:05;;;;;;;25.35;12.77;;;;;;;3.76;79.75;97493.78;5013123;28;20026;-65
2022/03/28 01:19:23;;;;;;;27.90;12.30;;;;;;;3.98;78.99;97497.63;5010566;28;20517;-65
2022/03/28 01:21:50;;;;;;;27.25;11.88;;;;;;;4.12;77.88;97492.97;5009022;28;20038;-66
2022/03/28 01:24:15;;;;;;;24.58;11.68;;;;;;;4.13;77.44;97491.88;5010676;28;20038;-67
2022/03/28 01:26:41;;;;;;;29.48;13.23;;;;;;;4.06;75.74;97496.13;5010636;28;20033;-66
2022/03/28 01:29:07;;;;;;;26.23;13.60;;;;;;;3.63;79.11;97499.97;5010663;28;20546;-67
2022/03/28 01:31:37;;;;;;;23.77;11.60;;;;;;;3.70;79.64;97502.28;5010581;28;20509;-67
2022/03/28 01:34:03;;;;;;;25.40;12.73;;;;;;;2.95;82.40;97496.88;5010747;28;20037;-68
2022/03/28 01:36:32;;;;;;;27.65;13.50;;;;;;;2.96;83.03;97489.59;5015128;28;20191;-66
2022/03/28 01:38:57;;;;;;;26.35;12.57;;;;;;;3.38;81.67;97488.53;5010540;28;20116;-65
2022/03/28 01:41:22;;;;;;;24.83;13.00;;;;;;;3.22;80.68;97484.50;5019742;28;20080;-67
2022/03/28 01:43:48;;;;;;;34.17;12.77;;;;;;;2.63;86.07;97484.19;5031169;28;20034;-67
2022/03/28 01:46:13;;;;;;;28.42;13.10;;;;;;;2.60;87.31;97480.16;5032384;28;20041;-64
2022/03/28 01:48:38;;;;;;;30.40;12.70;;;;;;;3.13;85.30;97480.91;5019619;28;20041;-64
2022/03/28 01:51:04;;;;;;;25.05;12.07;;;;;;;3.44;83.63;97484.63;5012996;28;20037;-67
2022/03/28 01:53:29;;;;;;;25.17;11.95;;;;;;;3.58;82.59;97479.22;5014123;28;20041;-63
2022/03/28 01:55:55;;;;;;;29.80;12.88;;;;;;;3.56;82.60;97484.13;5012276;28;20498;-67
2022/03/28 01:58:20;;;;;;;24.23;13.15;;;;;;;3.61;81.64;97477.81;5014566;28;20095;-67
2022/03/28 02:00:46;;;;;;;28.45;13.80;;;;;;;3.45;79.17;97475.38;5014145;28;20399;-67
2022/03/28 02:03:11;;;;;;;25.42;12.98;;;;;;;3.29;80.79;97476.00;5014601;28;20034;-65
2022/03/28 02:05:37;;;;;;;26.05;13.55;;;;;;;3.31;82.51;97476.50;5013991;28;20025;-68
2022/03/28 02:08:02;;;;;;;23.95;12.05;;;;;;;3.35;82.42;97464.78;5013118;28;20061;-65
2022/03/28 02:10:28;;;;;;;26.80;13.10;;;;;;;3.33;80.47;97474.28;5013983;28;20116;-64
2022/03/28 02:12:54;;;;;;;28.10;12.45;;;;;;;3.30;80.02;97477.63;5014228;28;20084;-67
2022/03/28 02:15:20;;;;;;;26.08;13.05;;;;;;;3.09;80.64;97483.41;5013921;28;20034;-67
2022/03/28 02:17:46;;;;;;;27.55;13.65;;;;;;;3.12;81.91;97474.69;5011813;28;20049;-64
2022/03/28 02:20:13;;;;;;;27.40;12.38;;;;;;;3.20;81.86;97475.88;5013702;28;20038;-67
2022/03/28 02:22:40;;;;;;;24.23;12.15;;;;;;;3.06;82.12;97471.28;4995213;28;20030;-66
2022/03/28 02:25:07;;;;;;;31.63;13.48;;;;;;;2.92;82.53;97466.91;5004848;28;20525;-67
2022/03/28 02:27:33;;;;;;;27.90;12.63;;;;;;;2.96;83.68;97474.16;5013562;28;20046;-65
2022/03/28 02:29:59;;;;;;;24.95;12.60;;;;;;;3.13;82.92;97467.34;5011105;28;20112;-65
2022/03/28 02:32:24;;;;;;;26.23;12.57;;;;;;;3.24;81.75;97468.75;5013824;28;20033;-64
2022/03/28 02:34:49;;;;;;;31.38;13.50;;;;;;;3.34;81.26;97470.50;5010751;28;20478;-65
2022/03/28 02:37:15;;;;;;;29.50;12.80;;;;;;;3.34;81.69;97468.56;5013361;28;20026;-65
2022/03/28 02:39:41;;;;;;;25.55;12.65;;;;;;;3.44;80.99;97460.25;5011407;28;20036;-67
2022/03/28 02:42:06;;;;;;;24.75;12.05;;;;;;;3.18;79.46;97462.66;5013652;28;20476;-67
2022/03/28 02:44:32;;;;;;;29.75;12.40;;;;;;;2.56;84.55;97465.66;5013701;28;20496;-65
2022/03/28 02:46:57;;;;;;;27.23;12.75;;;;;;;2.29;86.47;97460.94;5011880;28;20041;-66
2022/03/28 02:49:23;;;;;;;30.35;13.38;;;;;;;2.06;87.03;97465.31;5006041;28;20435;-65
2022/03/28 02:51:48;;;;;;;29.02;14.13;;;;;;;2.07;88.87;97467.75;5029325;28;20033;-65
2022/03/28 02:54:14;;;;;;;27.17;12.05;;;;;;;2.06;89.20;97466.13;5036470;28;20061;-65
2022/03/28 02:56:39;;;;;;;25.23;12.57;;;;;;;2.00;89.64;97472.72;5014458;28;20085;-66
2022/03/28 02:59:05;;;;;;;26.63;11.63;;;;;;;2.09;90.14;97468.25;5026792;28;20030;-65
2022/03/28 03:01:31;;;;;;;27.77;12.48;;;;;;;2.15;89.37;97465.47;5013083;28;20033;-66
2022/03/28 03:03:56;;;;;;;28.00;13.25;;;;;;;1.97;90.97;97467.09;5010711;28;20041;-67
2022/03/28 03:06:22;;;;;;;30.90;13.55;;;;;;;1.89;92.51;97463.94;5011661;28;20080;-65
2022/03/28 03:08:48;;;;;;;25.58;13.00;;;;;;;2.09;91.67;97462.84;5010188;28;20505;-64
2022/03/28 03:11:13;;;;;;;39.22;13.27;;;;;;;2.15;91.26;97460.88;5012284;28;20087;-65
2022/03/28 03:13:39;;;;;;;29.63;12.40;;;;;;;2.41;89.93;97457.75;5013118;28;20131;-65
2022/03/28 03:16:05;;;;;;;27.60;12.77;;;;;;;2.56;88.75;97454.81;5012235;28;20375;-66
2022/03/28 03:18:30;;;;;;;27.63;12.05;;;;;;;2.58;88.17;97454.53;5010375;28;20095;-66
2022/03/28 03:20:56;;;;;;;29.60;13.32;;;;;;;2.63;88.06;97449.03;5010055;28;20030;-65
2022/03/28 03:23:21;;;;;;;23.38;11.48;;;;;;;2.69;87.39;97450.56;5013163;28;20148;-66
2022/03/28 03:25:47;;;;;;;31.15;13.20;;;;;;;2.43;87.88;97444.75;5009704;28;20113;-66
2022/03/28 03:28:12;;;;;;;26.58;13.10;;;;;;;2.17;88.59;97449.75;5011455;28;20348;-65
2022/03/28 03:30:37;;;;;;;24.63;12.50;;;;;;;2.08;89.66;97452.31;5012697;28;20053;-68
2022/03/28 03:33:03;;;;;;;27.48;12.65;;;;;;;1.84;91.00;97455.91;5011481;28;20026;-66
2022/03/28 03:35:29;;;;;;;31.30;12.77;;;;;;;1.70;90.40;97455.00;5008967;28;20441;-65
2022/03/28 03:37:54;;;;;;;29.52;13.02;;;;;;;1.59;90.49;97450.84;5011191;28;20022;-66
2022/03/28 03:40:20;;;;;;;24.48;11.90;;;;;;;1.61;90.55;97459.44;5012497;28;20088;-67
2022/03/28 03:42:45;;;;;;;26.67;12.70;;;;;;;1.59;88.99;97462.44;5010762;28;20060;-67
2022/03/28 03:45:11;;;;;;;29.05;12.82;;;;;;;1.79;91.73;97460.56;5017910;28;20117;-65
2022/03/28 03:47:37;;;;;;;32.15;13.40;;;;;;;1.96;91.53;97460.84;5022613;28;20053;-66
2022/03/28 03:50:04;;;;;;;29.45;13.00;;;;;;;2.09;90.97;97454.75;5017776;28;20025;-64
2022/03/28 03:52:30;;;;;;;25.35;12.13;;;;;;;2.16;90.53;97467.91;5012768;28;20037;-67
2022/03/28 03:54:56;;;;;;;25.08;12.23;;;;;;;2.31;88.86;97457.94;5008483;28;20505;-67
2022/03/28 03:57:21;;;;;;;29.67;13.40;;;;;;;2.25;87.17;97462.59;5013085;28;20030;-65
2022/03/28 03:59:47;;;;;;;32.28;13.75;;;;;;;2.27;86.99;97463.94;5007230;28;20877;-66
2022/03/28 04:02:12;;;;;;;26.05;12.00;;;;;;;2.38;86.67;97463.78;5010442;28;20049;-65
2022/03/28 04:04:38;;;;;;;29.52;13.32;;;;;;;2.38;86.64;97471.88;5011529;28;20107;-67
2022/03/28 04:07:04;;;;;;;24.80;12.20;;;;;;;2.35;86.29;97467.06;5013428;28;20033;-66
2022/03/28 04:09:29;;;;;;;25.55;10.95;;;;;;;2.24;86.18;97463.72;5011035;28;20026;-66
2022/03/28 04:11:54;;;;;;;22.83;11.30;;;;;;;2.18;86.41;97465.69;5013304;28;20034;-67
2022/03/28 04:14:20;;;;;;;25.00;10.93;;;;;;;2.06;85.67;97470.72;5032177;28;20109;-65
2022/03/28 04:16:45;;;;;;;24.73;11.73;;;;;;;1.96;85.55;97465.47;5031241;28;20029;-66
2022/03/28 04:19:11;;;;;;;26.67;12.02;;;;;;;1.92;86.62;97471.44;5011529;28;20156;-68
2022/03/28 04:21:36;;;;;;;23.75;12.68;;;;;;;2.03;87.13;97472.09;5008150;28;20483;-67
2022/03/28 04:24:02;;;;;;;31.45;12.27;;;;;;;2.03;87.12;97464.00;5012526;28;20030;-67
2022/03/28 04:26:28;;;;;;;27.15;12.18;;;;;;;2.04;86.97;97470.22;5008887;28;20034;-65
2022/03/28 04:28:53;;;;;;;28.45;11.88;;;;;;;1.73;87.88;97459.84;5011946;28;20034;-67
2022/03/28 04:31:18;;;;;;;34.13;13.38;;;;;;;1.49;89.73;97462.56;5009299;28;20040;-66
2022/03/28 04:33:44;;;;;;;29.13;13.25;;;;;;;1.19;92.28;97469.09;5009645;28;20030;-64
2022/03/28 04:36:09;;;;;;;27.92;13.75;;;;;;;1.25;93.92;97474.16;5010711;28;20084;-67
2022/03/28 04:38:34;;;;;;;33.88;14.43;;;;;;;1.36;94.31;97463.28;5012105;28;20034;-67
2022/03/28 04:41:00;;;;;;;33.40;13.25;;;;;;;1.67;93.09;97469.09;5015767;28;20049;-67
2022/03/28 04:43:25;;;;;;;31.27;13.68;;;;;;;1.80;91.67;97471.09;5012168;28;20040;-67
2022/03/28 04:45:51;;;;;;;35.25;15.27;;;;;;;1.90;90.94;97470.13;5009292;28;20394;-66
2022/03/28 04:48:16;;;;;;;31.42;13.63;;;;;;;1.91;90.60;97458.25;5008738;28;20038;-67
2022/03/28 04:50:41;;;;;;;29.33;13.20;;;;;;;1.73;88.65;97459.84;5007982;28;20033;-65
2022/03/28 04:53:07;;;;;;;27.63;12.95;;;;;;;1.53;90.38;97464.41;5011795;28;20065;-67
2022/03/28 04:55:32;;;;;;;29.95;13.15;;;;;;;1.56;91.32;97465.72;5009342;28;20030;-66
2022/03/28 04:57:58;;;;;;;28.88;12.35;;;;;;;1.58;91.31;97462.72;5010794;28;20022;-67
2022/03/28 05:00:24;;;;;;;27.50;12.70;;;;;;;1.67;90.84;97460.97;5029442;23;20042;-63
2022/03/28 05:02:49;;;;;;;26.13;12.48;;;;;;;1.70;89.60;97463.13;5010053;28;20116;-64
2022/03/28 05:05:15;;;;;;;35.90;13.70;;;;;;;1.48;89.23;97472.56;5010077;28;20500;-66
2022/03/28 05:07:40;;;;;;;30.05;13.35;;;;;;;0.98;91.72;97466.63;5010459;28;20076;-66
2022/03/28 05:10:06;;;;;;;34.67;14.77;;;;;;;0.79;94.43;97468.44;5011888;28;20038;-66
2022/03/28 05:12:33;;;;;;;27.92;12.63;;;;;;;0.87;95.15;97462.44;4999320;28;20375;-66
2022/03/28 05:14:59;;;;;;;24.02;12.10;;;;;;;0.87;95.08;97465.94;5006183;28;20037;-65
2022/03/28 05:17:29;;;;;;;27.55;12.88;;;;;;;0.78;95.23;97467.66;5000129;28;20031;-64
2022/03/28 05:19:56;;;;;;;29.23;14.32;;;;;;;0.93;95.43;97466.69;5014560;28;20034;-66
2022/03/28 05:22:22;;;;;;;33.42;13.80;;;;;;;1.17;96.09;97465.91;5006590;28;20034;-65
2022/03/28 05:24:48;;;;;;;28.15;13.23;;;;;;;1.49;94.27;97476.84;5015938;28;20113;-64
2022/03/28 05:27:15;;;;;;;29.67;14.32;;;;;;;1.78;92.85;97470.56;5007787;28;20054;-66
2022/03/28 05:29:40;;;;;;;32.92;13.30;;;;;;;2.26;90.33;97477.72;5007689;28;20045;-67
2022/03/28 05:32:06;;;;;;;28.70;12.15;;;;;;;2.65;87.60;97476.59;5015279;28;20038;-67
2022/03/28 05:34:32;;;;;;;25.45;13.75;;;;;;;3.08;84.68;97475.56;4998501;28;20034;-68
2022/03/28 05:37:03;;;;;;;27.65;12.98;;;;;;;2.93;83.35;97479.34;5006812;28;20105;-64
2022/03/28 05:39:31;;;;;;;32.22;13.20;;;;;;;2.91;85.17;97484.28;5009226;28;20113;-65
2022/03/28 05:41:57;;;;;;;30.15;14.00;;;;;;;3.71;81.35;97476.78;4999663;28;20520;-64
2022/03/28 05:44:22;;;;;;;30.15;13.35;;;;;;;4.34;77.37;97475.13;4997304;28;20031;-66
2022/03/28 05:46:51;;;;;;;30.65;12.63;;;;;;;5.00;73.92;97477.34;5004900;28;20502;-66
2022/03/28 05:49:19;;;;;;;34.83;13.50;;;;;;;5.55;71.61;97475.03;5009577;28;20046;-66
2022/03/28 05:51:45;;;;;;;31.55;13.68;;;;;;;6.26;68.20;97481.44;4996028;28;20030;-66
2022/03/28 05:54:12;;;;;;;38.53;13.05;;;;;;;7.02;64.05;97477.38;4998974;28;20042;-65
2022/03/28 05:56:38;;;;;;;32.70;12.60;;;;;;;7.42;61.15;97480.63;4989761;28;20122;-65
2022/03/28 05:59:07;;;;;;;29.83;11.23;;;;;;;8.13;59.70;97470.16;5003626;28;20199;-67
2022/03/28 06:01:37;;;;;;;27.58;11.88;;;;;;;8.56;56.32;97469.06;5005745;28;20042;-67
2022/03/28 06:04:04;;;;;;;29.58;10.95;;;;;;;8.26;55.69;97473.75;5001821;28;20033;-66
2022/03/28 06:06:30;;;;;;;26.90;11.48;;;;;;;8.15;56.80;97470.63;5002387;28;20099;-66
2022/03/28 06:08:56;;;;;;;26.83;11.90;;;;;;;9.09;54.28;97474.81;5010958;28;20038;-66
2022/03/28 06:11:22;;;;;;;29.15;11.68;;;;;;;9.62;51.12;97464.06;5003420;28;20038;-65
2022/03/28 06:13:47;;;;;;;30.02;11.70;;;;;;;9.93;49.19;97477.16;5006916;28;20029;-65
2022/03/28 06:16:13;;;;;;;26.60;11.45;;;;;;;9.80;50.00;97476.38;4996691;28;20150;-65
2022/03/28 06:18:38;;;;;;;24.73;11.25;;;;;;;10.67;48.67;97477.81;4995165;28;20065;-65
2022/03/28 06:21:04;;;;;;;22.92;11.65;;;;;;;11.05;48.68;97473.78;4994561;28;20030;-66
2022/03/28 06:23:29;;;;;;;25.15;11.88;;;;;;;10.62;48.42;97477.28;4999803;28;20582;-65
2022/03/28 06:25:55;;;;;;;22.13;11.18;;;;;;;11.28;47.01;97484.97;5000656;28;20038;-66
2022/03/28 06:28:21;;;;;;;22.80;11.85;;;;;;;11.70;45.06;97482.88;5001773;28;20039;-65
2022/03/28 06:30:47;;;;;;;20.75;11.43;;;;;;;11.51;46.29;97480.84;5005206;28;20105;-66
2022/03/28 06:33:13;;;;;;;24.73;11.27;;;;;;;11.59;45.27;97483.38;5006190;28;20109;-65
2022/03/28 06:35:39;;;;;;;25.05;11.00;;;;;;;11.35;45.53;97487.09;4993371;28;20026;-66
2022/03/28 06:38:05;;;;;;;27.08;12.52;;;;;;;11.93;43.93;97485.81;5003389;28;20034;-66
2022/03/28 06:40:31;;;;;;;25.52;13.65;;;;;;;11.13;46.17;97484.94;5012191;28;20045;-65
2022/03/28 06:42:56;;;;;;;30.10;16.08;;;;;;;9.89;50.31;97479.00;4990068;28;20133;-66
2022/03/28 06:45:21;;;;;;;32.38;16.15;;;;;;;7.98;57.20;97485.19;4995440;28;20030;-64
2022/03/28 06:47:51;;;;;;;31.65;14.35;;;;;;;8.48;56.66;97480.84;5007790;28;20030;-64
2022/03/28 06:50:17;;;;;;;25.95;13.80;;;;;;;8.54;56.37;97482.25;4986216;28;20033;-65
2022/03/28 06:52:43;;;;;;;29.40;15.00;;;;;;;9.81;54.16;97483.44;4984567;28;20518;-65
2022/03/28 06:55:08;;;;;;;28.73;13.68;;;;;;;10.30;51.94;97486.13;4997382;28;20104;-66
2022/03/28 06:57:35;;;;;;;27.25;13.60;;;;;;;10.75;51.02;97478.84;4995204;28;20116;-68
2022/03/28 07:00:01;;;;;;;27.55;12.73;;;;;;;11.00;50.05;97487.75;4992524;28;20053;-65
2022/03/28 07:02:26;;;;;;;25.45;11.98;;;;;;;13.27;44.91;97481.91;4979840;28;20050;-65
2022/03/28 07:04:51;;;;;;;26.83;13.15;;;;;;;14.72;41.91;97476.31;4980780;28;20039;-64
2022/03/28 07:07:17;;;;;;;25.88;12.10;;;;;;;15.07;40.51;97468.81;4985481;28;20042;-66
2022/03/28 07:09:42;;;;;;;31.05;18.67;;;;;;;12.72;46.83;97476.53;5002445;28;20065;-65
2022/03/28 07:12:09;;;;;;;34.55;14.85;;;;;;;13.08;45.58;97474.50;4993956;28;20137;-66
2022/03/28 07:14:35;;;;;;;24.50;13.75;;;;;;;13.28;45.31;97472.50;5002581;28;20046;-66
2022/03/28 07:17:01;;;;;;;25.85;13.55;;;;;;;14.52;42.37;97478.38;4989197;28;20053;-66
2022/03/28 07:19:27;;;;;;;26.63;13.02;;;;;;;14.24;42.38;97466.97;4993523;28;22088;-68
2022/03/28 07:21:52;;;;;;;27.70;13.60;;;;;;;15.26;41.59;97470.59;4989104;28;20038;-64
2022/03/28 07:24:18;;;;;;;24.92;14.50;;;;;;;15.57;39.79;97469.31;4972039;28;20054;-65
2022/03/28 07:26:48;;;;;;;23.67;12.65;;;;;;;15.37;40.30;97471.50;4986615;28;20586;-65
2022/03/28 07:29:17;;;;;;;27.02;13.10;;;;;;;14.82;41.01;97474.88;4968402;28;20109;-65
2022/03/28 07:31:46;;;;;;;21.45;11.52;;;;;;;17.43;35.70;97471.56;4973283;28;20455;-65
2022/03/28 07:34:30;;;;;;;25.23;12.98;;;;;;;17.72;34.99;97460.50;4979613;28;20148;-64
2022/03/28 07:36:56;;;;;;;22.67;12.07;;;;;;;18.59;33.29;97464.75;4972732;28;20050;-65
2022/03/28 07:39:23;;;;;;;20.50;12.18;;;;;;;17.20;35.50;97464.38;4970263;28;20491;-71
2022/03/28 07:41:50;;;;;;;22.50;13.38;;;;;;;14.15;41.65;97465.28;4978938;28;20039;-65
2022/03/28 07:44:16;;;;;;;24.45;12.25;;;;;;;16.83;37.09;97467.41;4968529;28;20046;-63
2022/03/28 07:46:44;;;;;;;25.58;13.00;;;;;;;18.07;34.97;97464.47;4969855;28;20050;-64
2022/03/28 07:49:11;;;;;;;24.00;14.00;;;;;;;19.03;33.91;97465.38;4969943;28;20047;-65
2022/03/28 07:51:36;;;;;;;22.63;13.15;;;;;;;20.27;31.26;97458.53;4982473;28;20049;-65
2022/03/28 07:54:02;;;;;;;24.92;13.25;;;;;;;20.58;30.72;97463.00;4973236;28;20046;-66
2022/03/28 07:56:27;;;;;;;21.77;12.57;;;;;;;21.22;29.71;97462.63;4966203;28;20076;-65
2022/03/28 07:58:53;;;;;;;22.45;13.13;;;;;;;20.90;30.02;97464.63;4975548;28;20080;-65
2022/03/28 08:01:18;;;;;;;28.92;13.25;;;;;;;19.62;32.40;97465.41;4970591;28;20100;-66
2022/03/28 08:03:44;;;;;;;31.40;14.35;;;;;;;19.75;31.73;97457.41;4980037;28;20049;-66
2022/03/28 08:06:09;;;;;;;22.15;12.75;;;;;;;19.48;31.62;97466.31;4966205;28;20047;-66
2022/03/28 08:08:36;;;;;;;24.23;13.70;;;;;;;19.13;32.18;97447.09;4974171;28;20041;-65
2022/03/28 08:11:02;;;;;;;25.17;13.70;;;;;;;19.76;31.35;97450.66;4971493;28;20062;-65
2022/03/28 08:13:27;;;;;;;25.02;14.38;;;;;;;16.51;37.65;97450.66;4972942;28;20073;-64
2022/03/28 08:15:53;;;;;;;26.00;13.70;;;;;;;17.40;37.19;97441.88;4972689;28;20046;-64
2022/03/28 08:18:19;;;;;;;23.05;13.40;;;;;;;19.45;32.41;97439.34;4963202;28;20047;-65
2022/03/28 08:20:45;;;;;;;24.85;14.18;;;;;;;20.43;30.29;97440.06;4978412;28;20446;-64
2022/03/28 08:23:11;;;;;;;30.30;16.08;;;;;;;20.05;30.23;97444.84;4975047;28;20050;-66
2022/03/28 08:25:39;;;;;;;22.83;13.97;;;;;;;20.49;29.82;97443.22;4969053;28;20056;-66
2022/03/28 08:28:05;;;;;;;28.38;13.45;;;;;;;18.81;33.19;97445.25;4971096;28;20038;-67
2022/03/28 08:30:30;;;;;;;23.40;12.93;;;;;;;20.30;30.73;97435.47;4973532;28;20059;-66
2022/03/28 08:32:55;;;;;;;24.52;13.90;;;;;;;20.44;29.62;97441.66;4972197;28;20454;-65
2022/03/28 08:35:22;;;;;;;25.02;13.75;;;;;;;20.37;28.92;97432.63;4966992;28;20114;-66
2022/03/28 08:37:48;;;;;;;27.10;14.15;;;;;;;20.23;29.08;97431.56;4983542;28;20048;-66
2022/03/28 08:40:17;;;;;;;27.60;15.13;;;;;;;20.59;28.81;97428.38;4974196;28;20439;-66
2022/03/28 08:42:43;;;;;;;26.13;15.15;;;;;;;21.25;29.06;97433.91;4968988;28;20038;-65
2022/03/28 08:45:11;;;;;;;25.23;14.50;;;;;;;21.71;28.42;97430.44;4972361;28;20074;-66
2022/03/28 08:47:42;;;;;;;28.58;14.20;;;;;;;22.10;29.19;97425.44;4976038;28;20481;-66
2022/03/28 08:50:10;;;;;;;25.00;13.80;;;;;;;22.58;27.86;97420.56;4977461;28;20065;-65
2022/03/28 08:52:38;;;;;;;27.00;14.80;;;;;;;22.13;28.18;97421.78;4976537;28;20084;-65
2022/03/28 08:55:05;;;;;;;24.38;13.15;;;;;;;21.62;28.46;97423.84;4968556;28;20046;-66
2022/03/28 08:57:32;;;;;;;36.15;15.55;;;;;;;20.73;29.52;97430.25;4973331;28;20109;-66
2022/03/28 08:59:58;;;;;;;24.80;14.00;;;;;;;21.12;28.62;97422.56;4977461;28;20057;-65
2022/03/28 09:02:31;;;;;;;22.73;13.55;;;;;;;21.00;28.86;97415.56;4972092;28;20908;-66
2022/03/28 09:04:57;;;;;;;31.20;15.40;;;;;;;22.21;27.50;97416.88;4977739;28;20129;-65
2022/03/28 09:07:27;;;;;;;26.40;13.93;;;;;;;21.66;27.20;97413.41;4966960;28;21012;-63
2022/03/28 09:10:00;;;;;;;26.60;13.85;;;;;;;21.34;27.59;97409.91;4975615;28;20051;-65
2022/03/28 09:12:27;;;;;;;23.10;13.48;;;;;;;21.17;27.66;97408.16;4966902;28;20047;-66
2022/03/28 09:14:58;;;;;;;26.65;13.70;;;;;;;21.54;27.84;97403.66;4963165;28;20495;-64
2022/03/28 09:17:25;;;;;;;24.48;13.77;;;;;;;20.40;28.90;97406.72;4964815;28;20157;-66
2022/03/28 09:19:58;;;;;;;27.42;15.25;;;;;;;21.60;27.99;97399.19;4967311;28;20066;-65
2022/03/28 09:22:29;;;;;;;32.15;15.13;;;;;;;21.77;27.60;97397.31;4965926;28;20982;-66
2022/03/28 09:25:02;;;;;;;24.58;13.75;;;;;;;20.85;28.29;97397.47;4969499;28;20135;-65
2022/03/28 09:27:31;;;;;;;24.13;13.98;;;;;;;20.69;28.95;97390.53;4962793;28;20094;-65
2022/03/28 09:30:14;;;;;;;22.65;13.38;;;;;;;21.49;27.46;97381.84;4981283;28;20736;-65
2022/03/28 09:32:58;;;;;;;26.23;13.85;;;;;;;20.76;28.13;97379.31;4987308;28;20720;-67
2022/03/28 09:35:26;;;;;;;24.92;13.45;;;;;;;20.27;29.35;97381.44;4971138;28;20098;-66
2022/03/28 09:37:58;;;;;;;24.83;14.10;;;;;;;20.79;28.42;97375.66;4967164;28;20042;-63
2022/03/28 09:40:26;;;;;;;23.75;14.05;;;;;;;20.87;28.73;97375.56;4981363;28;20055;-65
2022/03/28 09:42:52;;;;;;;25.10;13.23;;;;;;;21.44;28.24;97362.78;4981153;28;20042;-64
2022/03/28 09:45:20;;;;;;;24.60;14.02;;;;;;;21.23;28.34;97373.06;4969771;28;20047;-67
2022/03/28 09:47:59;;;;;;;28.15;14.82;;;;;;;21.08;28.65;97360.56;4968199;28;20141;-66
2022/03/28 09:50:39;;;;;;;22.42;13.35;;;;;;;21.30;28.33;97361.00;4965833;28;20058;-66
2022/03/28 09:53:15;;;;;;;27.77;13.18;;;;;;;21.11;28.74;97352.16;4968122;28;20046;-66
2022/03/28 09:55:50;;;;;;;24.73;14.52;;;;;;;20.47;29.19;97353.78;4975669;28;20142;-64
2022/03/28 09:58:48;;;;;;;24.50;14.48;;;;;;;20.44;29.85;97343.50;4967845;28;20043;-66
2022/03/28 10:01:40;;;;;;;30.35;14.38;;;;;;;20.51;29.68;97340.63;4973062;28;20038;-64
2022/03/28 10:04:09;;;;;;;27.63;14.15;;;;;;;20.83;29.45;97344.22;4967113;28;20050;-65
2022/03/28 10:06:39;;;;;;;27.27;15.15;;;;;;;20.86;29.21;97333.03;4978596;28;20060;-64
2022/03/28 10:09:06;;;;;;;28.73;15.82;;;;;;;20.71;29.58;97329.66;4969281;28;20038;-66
2022/03/28 10:11:32;;;;;;;27.38;14.77;;;;;;;21.66;28.45;97324.22;4970999;28;20041;-65
2022/03/28 10:13:58;;;;;;;24.10;14.32;;;;;;;21.26;28.55;97327.63;4976403;28;20128;-65
2022/03/28 10:16:24;;;;;;;24.23;13.65;;;;;;;21.78;27.86;97318.03;4970998;28;20054;-65
2022/03/28 10:18:50;;;;;;;27.38;14.45;;;;;;;21.08;28.64;97318.78;4970998;28;20062;-64
2022/03/28 10:21:30;;;;;;;31.08;13.60;;;;;;;21.74;28.10;97314.53;4969815;28;20428;-65
2022/03/28 10:24:05;;;;;;;28.15;14.32;;;;;;;21.71;28.21;97293.06;4975092;28;20065;-65
2022/03/28 10:26:34;;;;;;;31.50;14.73;;;;;;;21.42;28.16;97303.91;4968456;28;20054;-67
2022/03/28 10:29:03;;;;;;;23.60;13.23;;;;;;;20.82;28.65;97301.69;4978850;28;20118;-64
2022/03/28 10:31:32;;;;;;;26.20;14.43;;;;;;;20.84;29.51;97295.69;4983693;28;20484;-64
2022/03/28 10:33:57;;;;;;;30.20;14.00;;;;;;;21.32;28.54;97283.38;4966157;28;20077;-66
2022/03/28 10:36:29;;;;;;;33.30;14.40;;;;;;;21.38;28.71;97287.25;4956359;28;20640;-66
2022/03/28 10:39:31;;;;;;;25.73;13.70;;;;;;;20.89;28.87;97281.31;4968652;28;20046;-65
2022/03/28 10:42:05;;;;;;;25.33;14.13;;;;;;;20.71;28.60;97271.22;4976190;28;20042;-65
2022/03/28 10:44:59;;;;;;;31.05;15.32;;;;;;;20.51;29.20;97279.44;4983074;28;20108;-65
2022/03/28 10:47:46;;;;;;;26.40;14.60;;;;;;;19.79;30.42;97266.41;4978049;28;20045;-65
2022/03/28 10:50:13;;;;;;;27.83;15.30;;;;;;;19.93;29.25;97268.22;4976905;28;20053;-64
2022/03/28 10:53:08;;;;;;;28.13;14.63;;;;;;;20.11;29.50;97256.09;4984228;28;20069;-65
2022/03/28 10:55:48;;;;;;;28.73;15.32;;;;;;;19.85;31.46;97261.19;4982661;28;20050;-64
2022/03/28 10:58:25;;;;;;;27.00;15.13;;;;;;;19.63;32.13;97253.06;4978378;28;20057;-64
2022/03/28 11:01:05;;;;;;;24.88;14.88;;;;;;;19.22;32.86;97250.28;5013289;23;20041;-72
2022/03/28 11:03:38;;;;;;;29.40;14.07;;;;;;;19.12;32.53;97242.84;5003651;28;20378;-71
2022/03/28 11:06:05;;;;;;;32.15;15.10;;;;;;;18.92;30.18;97246.16;5019590;28;20052;-69
2022/03/28 11:08:41;;;;;;;31.15;14.50;;;;;;;18.81;31.35;97242.66;5025996;28;20118;-71
2022/03/28 11:11:23;;;;;;;30.92;15.38;;;;;;;18.32;31.71;97237.81;5012718;28;20077;-70
2022/03/28 11:14:09;;;;;;;31.48;15.50;;;;;;;18.34;31.62;97226.34;5003326;28;20108;-71
2022/03/28 11:16:52;;;;;;;29.88;15.25;;;;;;;18.45;30.19;97226.25;5002547;28;20041;-71
2022/03/28 11:19:35;;;;;;;33.72;15.10;;;;;;;18.34;31.16;97223.56;4997412;28;20038;-71
2022/03/28 11:22:03;;;;;;;27.77;15.88;;;;;;;18.29;31.20;97219.25;5002553;28;20109;-70
2022/03/28 11:24:54;;;;;;;29.42;14.38;;;;;;;18.15;32.16;97209.00;5001793;28;20073;-71